sensor_id;sensor_type;location;lat;lon;timestamp;P1;P2;P0
57798;PMS7003;43626;53.866;30.298;2023-06-14T00:02:10;4.2;3.4;1.8
57798;PMS7003;43626;53.866;30.298;2023-06-14T00:07:21;3.6;3.2;2
57798;PMS7003;43626;53.866;30.298;2023-06-14T00:12:30;4.6;3.6;2.4
57798;PMS7003;43626;53.866;30.298;2023-06-14T00:16:54;4;3.2;1.8
57798;PMS7003;43626;53.866;30.298;2023-06-14T00:22:10;4;3.8;2.2
57798;PMS7003;43626;53.866;30.298;2023-06-14T00:26:46;5.4;4.4;2.4
57798;PMS7003;43626;53.866;30.298;2023-06-14T00:32:26;4.4;3.4;2.2
57798;PMS7003;43626;53.866;30.298;2023-06-14T00:37:04;4.2;3.6;2.4
57798;PMS7003;43626;53.866;30.298;2023-06-14T00:42:10;5;3.3;2.5
57798;PMS7003;43626;53.866;30.298;2023-06-14T00:47:22;3.4;3;1.8
57798;PMS7003;43626;53.866;30.298;2023-06-14T00:52:28;5.6;4.2;2.4
57798;PMS7003;43626;53.866;30.298;2023-06-14T00:56:44;4.2;3.2;1.8
57798;PMS7003;43626;53.866;30.298;2023-06-14T01:01:46;3.6;3.4;2.2
57798;PMS7003;43626;53.866;30.298;2023-06-14T01:07:23;5;4;2.4
57798;PMS7003;43626;53.866;30.298;2023-06-14T01:12:29;5.8;5;3
57798;PMS7003;43626;53.866;30.298;2023-06-14T01:17:02;6.2;5;3.6
57798;PMS7003;43626;53.866;30.298;2023-06-14T01:21:46;6.4;5;2.8
57798;PMS7003;43626;53.866;30.298;2023-06-14T01:27:20;6.8;5.6;3.8
57798;PMS7003;43626;53.866;30.298;2023-06-14T01:32:20;6.2;4.4;2.8
57798;PMS7003;43626;53.866;30.298;2023-06-14T01:37:22;7;5.8;3.6
57798;PMS7003;43626;53.866;30.298;2023-06-14T01:42:00;8.5;6.5;4.5
57798;PMS7003;43626;53.866;30.298;2023-06-14T01:47:02;7.4;6.6;4.4
57798;PMS7003;43626;53.866;30.298;2023-06-14T01:52:28;9.2;7;4.2
57798;PMS7003;43626;53.866;30.298;2023-06-14T01:57:02;7.2;6.4;3.8
57798;PMS7003;43626;53.866;30.298;2023-06-14T02:02:18;8;6.2;4
57798;PMS7003;43626;53.866;30.298;2023-06-14T02:07:22;8.6;6.8;4.2
57798;PMS7003;43626;53.866;30.298;2023-06-14T02:12:28;9.6;7.8;4.2
57798;PMS7003;43626;53.866;30.298;2023-06-14T02:16:44;8;7.2;4.6
57798;PMS7003;43626;53.866;30.298;2023-06-14T02:22:10;8;6.6;4.4
57798;PMS7003;43626;53.866;30.298;2023-06-14T02:27:22;6.6;6;4
57798;PMS7003;43626;53.866;30.298;2023-06-14T02:32:26;9.2;7.4;4.8
57798;PMS7003;43626;53.866;30.298;2023-06-14T02:36:54;7.4;6;4.2
57798;PMS7003;43626;53.866;30.298;2023-06-14T02:42:10;6.6;6;4
57798;PMS7003;43626;53.866;30.298;2023-06-14T02:47:22;8.5;7;4.5
57798;PMS7003;43626;53.866;30.298;2023-06-14T02:52:28;7.6;6.8;3.8
57798;PMS7003;43626;53.866;30.298;2023-06-14T02:57:16;7.4;6.8;4.2
57798;PMS7003;43626;53.866;30.298;2023-06-14T03:02:12;7.4;7.4;4.4
57798;PMS7003;43626;53.866;30.298;2023-06-14T03:06:56;7.2;6.4;4.4
57798;PMS7003;43626;53.866;30.298;2023-06-14T03:12:28;7.8;6.2;4.2
57798;PMS7003;43626;53.866;30.298;2023-06-14T03:16:52;6.6;6.4;4
57798;PMS7003;43626;53.866;30.298;2023-06-14T03:22:02;6.4;6.4;4.2
57798;PMS7003;43626;53.866;30.298;2023-06-14T03:27:20;8.2;6.8;3.6
57798;PMS7003;43626;53.866;30.298;2023-06-14T03:32:18;8.4;7.2;4.2
57798;PMS7003;43626;53.866;30.298;2023-06-14T03:36:52;9.2;7.8;4.8
57798;PMS7003;43626;53.866;30.298;2023-06-14T03:42:10;7;6.4;4.4
57798;PMS7003;43626;53.866;30.298;2023-06-14T03:47:22;9.3;6.8;4.5
57798;PMS7003;43626;53.866;30.298;2023-06-14T03:52:26;8.4;7.2;4.8
57798;PMS7003;43626;53.866;30.298;2023-06-14T03:56:44;7;6;4.2
57798;PMS7003;43626;53.866;30.298;2023-06-14T04:02:10;8.2;6.8;4
57798;PMS7003;43626;53.866;30.298;2023-06-14T04:07:22;9.6;7.6;4.6
57798;PMS7003;43626;53.866;30.298;2023-06-14T04:12:28;7.6;6.2;3.8
57798;PMS7003;43626;53.866;30.298;2023-06-14T04:16:54;8;6.4;3.8
57798;PMS7003;43626;53.866;30.298;2023-06-14T04:22:12;9;8;4.4
57798;PMS7003;43626;53.866;30.298;2023-06-14T04:27:20;9;7.6;4.6
57798;PMS7003;43626;53.866;30.298;2023-06-14T04:32:28;6.8;6;4
57798;PMS7003;43626;53.866;30.298;2023-06-14T04:37:02;8;6.2;4.8
57798;PMS7003;43626;53.866;30.298;2023-06-14T04:42:10;9.6;8;4.4
57798;PMS7003;43626;53.866;30.298;2023-06-14T04:47:22;7.3;7;4.5
57798;PMS7003;43626;53.866;30.298;2023-06-14T04:52:28;8.8;8.2;5.2
57798;PMS7003;43626;53.866;30.298;2023-06-14T04:56:44;9.6;8;4.6
57798;PMS7003;43626;53.866;30.298;2023-06-14T05:02:10;10.4;8.8;5.6
57798;PMS7003;43626;53.866;30.298;2023-06-14T05:07:08;10;8.6;5.2
57798;PMS7003;43626;53.866;30.298;2023-06-14T05:12:30;10.4;8.6;5.6
57798;PMS7003;43626;53.866;30.298;2023-06-14T05:16:44;9;7.4;4.6
57798;PMS7003;43626;53.866;30.298;2023-06-14T05:22:12;9.4;8;4.8
57798;PMS7003;43626;53.866;30.298;2023-06-14T05:27:12;13.8;9.6;6.4
57798;PMS7003;43626;53.866;30.298;2023-06-14T05:32:28;12.2;9.6;5.8
57798;PMS7003;43626;53.866;30.298;2023-06-14T05:36:44;8.4;6.8;4.8
57798;PMS7003;43626;53.866;30.298;2023-06-14T05:42:10;8.8;6.4;4.4
57798;PMS7003;43626;53.866;30.298;2023-06-14T05:47:22;9.5;7.5;4.5
57798;PMS7003;43626;53.866;30.298;2023-06-14T05:52:28;7.8;6.2;4.2
57798;PMS7003;43626;53.866;30.298;2023-06-14T05:56:56;9.4;7.2;4.6
57798;PMS7003;43626;53.866;30.298;2023-06-14T06:02:12;9.8;8.2;5.2
57798;PMS7003;43626;53.866;30.298;2023-06-14T06:07:14;8.4;7.6;4.4
57798;PMS7003;43626;53.866;30.298;2023-06-14T06:12:30;7.8;5.8;3.4
57798;PMS7003;43626;53.866;30.298;2023-06-14T06:16:53;8.6;6.8;5
57798;PMS7003;43626;53.866;30.298;2023-06-14T06:21:54;8.4;7.6;5
57798;PMS7003;43626;53.866;30.298;2023-06-14T06:27:32;7.2;5.6;4.2
57798;PMS7003;43626;53.866;30.298;2023-06-14T06:32:32;9;7;4
57798;PMS7003;43626;53.866;30.298;2023-06-14T06:36:44;8.4;7.6;4.6
57798;PMS7003;43626;53.866;30.298;2023-06-14T06:42:06;9;6.2;4.2
57798;PMS7003;43626;53.866;30.298;2023-06-14T06:47:22;8.3;6.8;4.5
57798;PMS7003;43626;53.866;30.298;2023-06-14T06:52:30;7.2;6.6;4.2
57798;PMS7003;43626;53.866;30.298;2023-06-14T06:56:44;8;6.4;4
57798;PMS7003;43626;53.866;30.298;2023-06-14T07:02:06;8.2;6.4;4
57798;PMS7003;43626;53.866;30.298;2023-06-14T07:07:22;7.2;7;4
57798;PMS7003;43626;53.866;30.298;2023-06-14T07:12:30;8.6;6;3.6
57798;PMS7003;43626;53.866;30.298;2023-06-14T07:16:44;8;7;4.4
57798;PMS7003;43626;53.866;30.298;2023-06-14T07:22:14;7.6;6.8;3.8
57798;PMS7003;43626;53.866;30.298;2023-06-14T07:27:24;7.8;7;4.2
57798;PMS7003;43626;53.866;30.298;2023-06-14T07:31:44;8.8;6.8;4.4
57798;PMS7003;43626;53.866;30.298;2023-06-14T07:37:02;8.8;7.2;4.8
57798;PMS7003;43626;53.866;30.298;2023-06-14T07:42:06;7.6;6.6;4
57798;PMS7003;43626;53.866;30.298;2023-06-14T07:47:12;7.6;6.6;4.2
57798;PMS7003;43626;53.866;30.298;2023-06-14T07:52:12;8.8;7.3;4.8
57798;PMS7003;43626;53.866;30.298;2023-06-14T07:57:18;8.6;6.8;4.2
57798;PMS7003;43626;53.866;30.298;2023-06-14T08:02:04;7.2;6.2;4.6
57798;PMS7003;43626;53.866;30.298;2023-06-14T08:07:12;7.8;6.6;4.2
57798;PMS7003;43626;53.866;30.298;2023-06-14T08:12:12;8.2;7;4.4
57798;PMS7003;43626;53.866;30.298;2023-06-14T08:17:06;8;6.4;4.2
57798;PMS7003;43626;53.866;30.298;2023-06-14T08:22:02;7.4;6.4;4.2
57798;PMS7003;43626;53.866;30.298;2023-06-14T08:27:00;6.8;6.2;3.8
57798;PMS7003;43626;53.866;30.298;2023-06-14T08:32:10;7;5.8;3.6
57798;PMS7003;43626;53.866;30.298;2023-06-14T08:36:46;6.2;5.4;3.4
57798;PMS7003;43626;53.866;30.298;2023-06-14T08:41:52;9;6.4;4.2
57798;PMS7003;43626;53.866;30.298;2023-06-14T08:46:59;7;6;4
57798;PMS7003;43626;53.866;30.298;2023-06-14T08:51:44;7;6;3.8
57798;PMS7003;43626;53.866;30.298;2023-06-14T08:57:16;7;6;3.8
57798;PMS7003;43626;53.866;30.298;2023-06-14T09:02:06;7.6;6.2;4.2
57798;PMS7003;43626;53.866;30.298;2023-06-14T09:07:18;6.6;5.4;3.6
57798;PMS7003;43626;53.866;30.298;2023-06-14T09:12:00;8.2;5.8;3.4
57798;PMS7003;43626;53.866;30.298;2023-06-14T09:16:46;6;5.4;3.6
57798;PMS7003;43626;53.866;30.298;2023-06-14T09:21:54;6.8;6;4.2
57798;PMS7003;43626;53.866;30.298;2023-06-14T09:26:46;7.2;6.8;4.4
57798;PMS7003;43626;53.866;30.298;2023-06-14T09:31:56;6;5.2;3.6
57798;PMS7003;43626;53.866;30.298;2023-06-14T09:37:27;6.2;6.2;4.2
57798;PMS7003;43626;53.866;30.298;2023-06-14T09:42:16;5.4;5.2;3.6
57798;PMS7003;43626;53.866;30.298;2023-06-14T09:47:12;7.2;6.4;4.2
57798;PMS7003;43626;53.866;30.298;2023-06-14T09:52:14;7.5;5.5;3.5
57798;PMS7003;43626;53.866;30.298;2023-06-14T09:57:20;7;5.6;3
57798;PMS7003;43626;53.866;30.298;2023-06-14T10:01:44;7.4;6;3.8
57798;PMS7003;43626;53.866;30.298;2023-06-14T10:06:45;7.2;6;3.8
57798;PMS7003;43626;53.866;30.298;2023-06-14T10:11:44;7.2;6;3.8
57798;PMS7003;43626;53.866;30.298;2023-06-14T10:17:20;5.4;5;3
57798;PMS7003;43626;53.866;30.298;2023-06-14T10:21:55;6.6;5.6;3.8
57798;PMS7003;43626;53.866;30.298;2023-06-14T10:27:07;5.6;4.8;3.4
57798;PMS7003;43626;53.866;30.298;2023-06-14T10:32:00;6.8;4.8;3
57798;PMS7003;43626;53.866;30.298;2023-06-14T10:37:14;5.8;4.6;3.2
57798;PMS7003;43626;53.866;30.298;2023-06-14T10:42:07;9;7.2;4
57798;PMS7003;43626;53.866;30.298;2023-06-14T10:46:45;6.4;5;3.4
57798;PMS7003;43626;53.866;30.298;2023-06-14T10:52:13;7.3;6;3.8
57798;PMS7003;43626;53.866;30.298;2023-06-14T10:57:18;6.6;4.6;3
57798;PMS7003;43626;53.866;30.298;2023-06-14T11:02:11;5.6;4.8;3.2
57798;PMS7003;43626;53.866;30.298;2023-06-14T11:07:03;5;4.4;2.8
57798;PMS7003;43626;53.866;30.298;2023-06-14T11:11:44;6.2;5;3
57798;PMS7003;43626;53.866;30.298;2023-06-14T11:16:50;5.6;4.6;2.8
57798;PMS7003;43626;53.866;30.298;2023-06-14T11:21:54;6.6;4.6;3
57798;PMS7003;43626;53.866;30.298;2023-06-14T11:27:12;5.8;4.8;2.8
57798;PMS7003;43626;53.866;30.298;2023-06-14T11:32:00;5;4.8;2.8
57798;PMS7003;43626;53.866;30.298;2023-06-14T11:37:20;5.6;4.4;2
57798;PMS7003;43626;53.866;30.298;2023-06-14T11:41:45;5.8;4.4;3
57798;PMS7003;43626;53.866;30.298;2023-06-14T11:47:12;5.6;4.4;2.8
57798;PMS7003;43626;53.866;30.298;2023-06-14T11:51:45;4.3;4.3;3
57798;PMS7003;43626;53.866;30.298;2023-06-14T11:57:20;5.4;5.2;3.4
57798;PMS7003;43626;53.866;30.298;2023-06-14T12:01:44;5;4.2;2.6
57798;PMS7003;43626;53.866;30.298;2023-06-14T12:07:13;5.8;5.8;3.2
57798;PMS7003;43626;53.866;30.298;2023-06-14T12:12:12;6.6;5.2;3.2
57798;PMS7003;43626;53.866;30.298;2023-06-14T12:17:20;5;4.4;2.8
57798;PMS7003;43626;53.866;30.298;2023-06-14T12:22:09;5;4.2;2
57798;PMS7003;43626;53.866;30.298;2023-06-14T12:27:01;6.8;5.2;3.2
57798;PMS7003;43626;53.866;30.298;2023-06-14T12:31:44;5.8;5.2;2.8
57798;PMS7003;43626;53.866;30.298;2023-06-14T12:37:14;5;4.2;2.8
57798;PMS7003;43626;53.866;30.298;2023-06-14T12:42:26;5.4;4.8;3.2
57798;PMS7003;43626;53.866;30.298;2023-06-14T12:46:44;6.4;5.6;3.4
57798;PMS7003;43626;53.866;30.298;2023-06-14T12:51:56;5.4;5.2;3.2
57798;PMS7003;43626;53.866;30.298;2023-06-14T12:56:48;6.3;5.8;3.8
57798;PMS7003;43626;53.866;30.298;2023-06-14T13:01:54;6.2;5;3.4
57798;PMS7003;43626;53.866;30.298;2023-06-14T13:06:56;5.2;4.8;3
57798;PMS7003;43626;53.866;30.298;2023-06-14T13:11:44;6.8;5.2;3
57798;PMS7003;43626;53.866;30.298;2023-06-14T13:17:03;7.2;5.2;3.2
57798;PMS7003;43626;53.866;30.298;2023-06-14T13:21:56;6.6;5.8;3.6
57798;PMS7003;43626;53.866;30.298;2023-06-14T13:27:14;6.8;6;3.8
57798;PMS7003;43626;53.866;30.298;2023-06-14T13:31:44;7;6.2;3.6
57798;PMS7003;43626;53.866;30.298;2023-06-14T13:37:00;7;6;3.8
57798;PMS7003;43626;53.866;30.298;2023-06-14T13:42:22;8.2;7;4
57798;PMS7003;43626;53.866;30.298;2023-06-14T13:47:00;7.4;6;4.4
57798;PMS7003;43626;53.866;30.298;2023-06-14T13:52:10;7;6.4;4.2
57798;PMS7003;43626;53.866;30.298;2023-06-14T13:56:44;7.8;6.8;4.5
57798;PMS7003;43626;53.866;30.298;2023-06-14T14:01:56;6.4;5.6;3.8
57798;PMS7003;43626;53.866;30.298;2023-06-14T14:06:56;7.8;5.6;4.2
57798;PMS7003;43626;53.866;30.298;2023-06-14T14:11:44;7.6;6.4;3.8
57798;PMS7003;43626;53.866;30.298;2023-06-14T14:17:00;7.2;6.6;4
57798;PMS7003;43626;53.866;30.298;2023-06-14T14:21:56;6.8;5.8;4
57798;PMS7003;43626;53.866;30.298;2023-06-14T14:27:35;7.6;7.4;4.8
57798;PMS7003;43626;53.866;30.298;2023-06-14T14:31:56;7.8;6;4
57798;PMS7003;43626;53.866;30.298;2023-06-14T14:37:00;6;5;3
57798;PMS7003;43626;53.866;30.298;2023-06-14T14:41:44;7;5.2;3.2
57798;PMS7003;43626;53.866;30.298;2023-06-14T14:46:44;6.2;5.8;3.4
57798;PMS7003;43626;53.866;30.298;2023-06-14T14:51:56;7.8;6.4;4.2
57798;PMS7003;43626;53.866;30.298;2023-06-14T14:56:48;5.5;5.3;4
57798;PMS7003;43626;53.866;30.298;2023-06-14T15:02:06;7.4;6.2;4.2
57798;PMS7003;43626;53.866;30.298;2023-06-14T15:07:32;8.2;6.8;4
57798;PMS7003;43626;53.866;30.298;2023-06-14T15:11:44;6.6;6.4;4.4
57798;PMS7003;43626;53.866;30.298;2023-06-14T15:17:00;6.8;6.2;4.4
57798;PMS7003;43626;53.866;30.298;2023-06-14T15:22:08;7.2;5.6;4
57798;PMS7003;43626;53.866;30.298;2023-06-14T15:27:18;7.2;6.2;4.4
57798;PMS7003;43626;53.866;30.298;2023-06-14T15:32:24;8.2;6.8;5
57798;PMS7003;43626;53.866;30.298;2023-06-14T15:37:03;7;6.4;4.4
57798;PMS7003;43626;53.866;30.298;2023-06-14T15:42:09;7.6;7.2;4.8
57798;PMS7003;43626;53.866;30.298;2023-06-14T15:46:44;8.6;6.6;4.8
57798;PMS7003;43626;53.866;30.298;2023-06-14T15:51:57;7;6.4;4.6
57798;PMS7003;43626;53.866;30.298;2023-06-14T15:57:03;9;7.5;5
57798;PMS7003;43626;53.866;30.298;2023-06-14T16:02:07;8.2;8;5.6
57798;PMS7003;43626;53.866;30.298;2023-06-14T16:07:13;7.6;7;4.6
57798;PMS7003;43626;53.866;30.298;2023-06-14T16:11:45;8.8;6.8;4.2
57798;PMS7003;43626;53.866;30.298;2023-06-14T16:17:01;11.8;8.8;6.4
57798;PMS7003;43626;53.866;30.298;2023-06-14T16:22:09;16.6;14;8.8
57798;PMS7003;43626;53.866;30.298;2023-06-14T16:27:13;33;28;17.6
57798;PMS7003;43626;53.866;30.298;2023-06-14T16:32:27;14.8;11.6;8.4
57798;PMS7003;43626;53.866;30.298;2023-06-14T16:37:01;15;12.2;7.8
57798;PMS7003;43626;53.866;30.298;2023-06-14T16:42:13;12.8;10.8;6
57798;PMS7003;43626;53.866;30.298;2023-06-14T16:46:45;11.6;9.6;6.4
57798;PMS7003;43626;53.866;30.298;2023-06-14T16:52:01;10.4;9.2;5.8
57798;PMS7003;43626;53.866;30.298;2023-06-14T16:57:01;10;8;5.2
57798;PMS7003;43626;53.866;30.298;2023-06-14T17:01:45;14.8;11;7
57798;PMS7003;43626;53.866;30.298;2023-06-14T17:07:19;10.2;8.4;5.6
57798;PMS7003;43626;53.866;30.298;2023-06-14T17:11:45;9;7.8;5
57798;PMS7003;43626;53.866;30.298;2023-06-14T17:17:25;9;8.2;5.6
57798;PMS7003;43626;53.866;30.298;2023-06-14T17:22:07;9.6;8.8;5.8
57798;PMS7003;43626;53.866;30.298;2023-06-14T17:27:13;9.6;7.8;5.6
57798;PMS7003;43626;53.866;30.298;2023-06-14T17:31:55;8.6;7.8;5.6
57798;PMS7003;43626;53.866;30.298;2023-06-14T17:36:59;9.6;8.2;5.4
57798;PMS7003;43626;53.866;30.298;2023-06-14T17:41:43;7.8;6.4;4.4
57798;PMS7003;43626;53.866;30.298;2023-06-14T17:47:11;8.8;8.4;5.6
57798;PMS7003;43626;53.866;30.298;2023-06-14T17:51:43;10.6;9;6
57798;PMS7003;43626;53.866;30.298;2023-06-14T17:56:43;10.8;8.6;5.2
57798;PMS7003;43626;53.866;30.298;2023-06-14T18:02:09;8;7;4.5
57798;PMS7003;43626;53.866;30.298;2023-06-14T18:06:57;8.6;8;5.8
57798;PMS7003;43626;53.866;30.298;2023-06-14T18:12:15;10.6;9.4;6.6
57798;PMS7003;43626;53.866;30.298;2023-06-14T18:17:01;9.8;8.4;5.4
57798;PMS7003;43626;53.866;30.298;2023-06-14T18:21:45;10.2;8.8;5.8
57798;PMS7003;43626;53.866;30.298;2023-06-14T18:27:13;9.4;8;5.6
57798;PMS7003;43626;53.866;30.298;2023-06-14T18:31:45;12;10.2;7.2
57798;PMS7003;43626;53.866;30.298;2023-06-14T18:36:53;11.6;9.8;6.4
57798;PMS7003;43626;53.866;30.298;2023-06-14T18:41:57;10.4;8;5.4
57798;PMS7003;43626;53.866;30.298;2023-06-14T18:47:13;9;7.6;5.2
57798;PMS7003;43626;53.866;30.298;2023-06-14T18:51:45;9.8;7.8;5.2
57798;PMS7003;43626;53.866;30.298;2023-06-14T18:57:05;9.4;8.6;5.6
57798;PMS7003;43626;53.866;30.298;2023-06-14T19:01:45;8.5;7.8;5.3
57798;PMS7003;43626;53.866;30.298;2023-06-14T19:07:11;9.6;8.6;5.4
57798;PMS7003;43626;53.866;30.298;2023-06-14T19:11:51;10.4;9;5.6
57798;PMS7003;43626;53.866;30.298;2023-06-14T19:17:03;10.2;8.4;5.8
57798;PMS7003;43626;53.866;30.298;2023-06-14T19:22:09;9.6;7.8;5.2
57798;PMS7003;43626;53.866;30.298;2023-06-14T19:27:11;11.4;8.8;5.8
57798;PMS7003;43626;53.866;30.298;2023-06-14T19:32:03;11.2;9.8;6
57798;PMS7003;43626;53.866;30.298;2023-06-14T19:36:45;12.2;10.6;6.6
57798;PMS7003;43626;53.866;30.298;2023-06-14T19:42:09;12;11.2;7.2
57798;PMS7003;43626;53.866;30.298;2023-06-14T19:46:45;15.2;12.8;8.4
57798;PMS7003;43626;53.866;30.298;2023-06-14T19:51:57;26.6;20.4;12.6
57798;PMS7003;43626;53.866;30.298;2023-06-14T19:57:03;32.2;27.6;16.2
57798;PMS7003;43626;53.866;30.298;2023-06-14T20:02:07;28.3;24.8;14.3
57798;PMS7003;43626;53.866;30.298;2023-06-14T20:07:11;24.4;21.4;13
57798;PMS7003;43626;53.866;30.298;2023-06-14T20:11:57;20.2;17.2;11.2
57798;PMS7003;43626;53.866;30.298;2023-06-14T20:17:13;34.6;29;18
57798;PMS7003;43626;53.866;30.298;2023-06-14T20:22:05;31.8;25.8;16
57798;PMS7003;43626;53.866;30.298;2023-06-14T20:26:59;21.2;17.6;11.8
57798;PMS7003;43626;53.866;30.298;2023-06-14T20:31:45;16.4;14.4;9.8
57798;PMS7003;43626;53.866;30.298;2023-06-14T20:37:03;17;15.8;10.6
57798;PMS7003;43626;53.866;30.298;2023-06-14T20:42:05;17.4;15.2;9.2
57798;PMS7003;43626;53.866;30.298;2023-06-14T20:47:11;17;13.6;10
57798;PMS7003;43626;53.866;30.298;2023-06-14T20:52:03;26.2;21.8;14
57798;PMS7003;43626;53.866;30.298;2023-06-14T20:56:57;43.6;33.6;20.2
57798;PMS7003;43626;53.866;30.298;2023-06-14T21:02:33;40;30.6;18.2
57798;PMS7003;43626;53.866;30.298;2023-06-14T21:07:13;25;21.3;14
57798;PMS7003;43626;53.866;30.298;2023-06-14T21:11:45;26.4;22.8;14.4
57798;PMS7003;43626;53.866;30.298;2023-06-14T21:17:19;30;26;16.2
57798;PMS7003;43626;53.866;30.298;2023-06-14T21:22:17;38;31;18
57798;PMS7003;43626;53.866;30.298;2023-06-14T21:27:11;50.8;36.8;22.8
57798;PMS7003;43626;53.866;30.298;2023-06-14T21:31:57;43.2;34.4;20.6
57798;PMS7003;43626;53.866;30.298;2023-06-14T21:36:55;27.2;24.2;15
57798;PMS7003;43626;53.866;30.298;2023-06-14T21:41:45;21.2;18;12.2
57798;PMS7003;43626;53.866;30.298;2023-06-14T21:47:17;18.6;17.2;11.6
57798;PMS7003;43626;53.866;30.298;2023-06-14T21:51:55;21.8;16.6;11.2
57798;PMS7003;43626;53.866;30.298;2023-06-14T21:56:55;18.2;16.8;11
57798;PMS7003;43626;53.866;30.298;2023-06-14T22:02:05;20.8;17.6;11.4
57798;PMS7003;43626;53.866;30.298;2023-06-14T22:07:17;21.3;18.3;12.3
57798;PMS7003;43626;53.866;30.298;2023-06-14T22:11:45;20.8;18.2;11.4
57798;PMS7003;43626;53.866;30.298;2023-06-14T22:17:01;19.6;17.8;11.6
57798;PMS7003;43626;53.866;30.298;2023-06-14T22:21:55;19.8;17.4;11.4
57798;PMS7003;43626;53.866;30.298;2023-06-14T22:27:17;17.4;15;9.4
57798;PMS7003;43626;53.866;30.298;2023-06-14T22:31:55;18.6;16.8;10.4
57798;PMS7003;43626;53.866;30.298;2023-06-14T22:37:01;19.2;17.2;11.8
57798;PMS7003;43626;53.866;30.298;2023-06-14T22:42:05;18.8;16.2;11
57798;PMS7003;43626;53.866;30.298;2023-06-14T22:47:17;16.4;14;8.4
57798;PMS7003;43626;53.866;30.298;2023-06-14T22:52:01;16;13.4;8.4
57798;PMS7003;43626;53.866;30.298;2023-06-14T22:56:45;14.8;11.8;8
57798;PMS7003;43626;53.866;30.298;2023-06-14T23:01:45;14.4;13.2;8.2
57798;PMS7003;43626;53.866;30.298;2023-06-14T23:07:11;12.3;11.3;7.3
57798;PMS7003;43626;53.866;30.298;2023-06-14T23:11:55;16;13;8.2
57798;PMS7003;43626;53.866;30.298;2023-06-14T23:16:59;13.8;12.4;7.2
57798;PMS7003;43626;53.866;30.298;2023-06-14T23:22:07;15;13.2;9
57798;PMS7003;43626;53.866;30.298;2023-06-14T23:27:29;15.5;12;8
57798;PMS7003;43626;53.866;30.298;2023-06-14T23:31:55;14.4;12.6;8
57798;PMS7003;43626;53.866;30.298;2023-06-14T23:37:15;16;13.8;8.6
57798;PMS7003;43626;53.866;30.298;2023-06-14T23:42:07;16;12.4;7.8
57798;PMS7003;43626;53.866;30.298;2023-06-14T23:47:17;14;12.6;8.4
57798;PMS7003;43626;53.866;30.298;2023-06-14T23:51:55;14.4;12.6;8.2
57798;PMS7003;43626;53.866;30.298;2023-06-14T23:57:17;13.6;12.4;8
